Les vidéos Equidia

Discipline Date Nom de la Course Hippodrome Alloc Jockey/Driver Dist Corde Terrain Oeil Valeur Stalle Class Video
Plat 2018-12-08 Y. SAINT-MARTIN AMIENS 14.000 euros S.M .LAURENT 1650 D Lourd 20 4 04
Plat 2018-11-04 CABANNES CAVAILLON 10.500 euros A.MOLINS 1600 D 20 5 05
Plat 2018-09-23 GENEVE DIVONNE 9.500 euros G.CONGIU 1700 G Très souple 20 8 02
Plat 2018-07-28 MOULINS VICHY 14.000 euros G.CONGIU 1600 D Souple 20 8 07
Plat 2018-05-29 EXPERT RH AMIENS 15.000 euros Y.BONNEFOY 1650 D Collant 20 2 01
Plat 2018-04-06 DU LAONNOIS COMPIEGNE 19.000 euros M.BERTO 1600 G Lourd 20 11 09
Plat 2018-03-19 CARREFOUR ARMIS COMPIEGNE 13.000 euros M.BERTO 1600 G Très lourd 20 8 04
Plat 2018-03-14 COISY AMIENS 13.000 euros C.LECOEUVRE 1650 D Très lourd 20 10 07
Plat 2018-02-13 CATALANS TOULOUSE 13.000 euros C.LECOEUVRE 1600 D Lourd 20 14 06
Plat 2018-01-13 VAL BORRIGO CAGNES-SUR-MER 17.000 euros K.BARBAUD 1600 G PSF STANDARD 20 5 15
Plat 2017-12-28 DUMONT D'URV. PORNICHET 12.000 M.BERTO 1700 G PSF STANDARD 20 12 14
Plat 2017-11-29 LANDES TOULOUSE 12.000 M.FOULON 1600 D Bon 20 9
Plat 2017-11-05 DE CABANNES CAVAILLON 11.000 V.LE BOEUF 1600 D 20 6 04
Plat 2017-09-16 GENEVE DIVONNE 8.000 S.M .LAURENT 1700 G bon souple 20 6 09
Plat 2017-08-03 CAVILAM VICHY 16.000 S.MAILLOT 1600 D bon souple 20 12 09
Plat 2017-07-01 GDE.CHARTREUSE AIX LES BAINS 14.000 M.BERTO 1800 D collant 20 4 04
Plat 2017-04-14 BELLERIVE LYON-PARILLY 16.000 G.CONGIU 2200 G bon 20 8 09
Plat 2017-03-19 TEMPLE DIANE NIMES(Les Courbiers) 10.000 F.MASSE 1900 D bon 20 9 07
Plat 2017-02-19 FRANCE BLEU NIMES(Les Courbiers) 10.000 F.MASSE 1900 D bon 20 7 03
Plat 2016-03-20 NANCY.FR NANCY 11.000 L.PROIETTI 2400 D souple 20 11 07
Plat 2016-02-21 FRANCE BLEU NIMES(Les Courbiers) 10.000 L.PROIETTI 1900 D bon 20 10 05
Plat 2016-01-25 ILES DES EMBIEZ CAGNES-SUR-MER 19.000 L.PROIETTI 2150 G très souple 20 1 06